Time;durP1;ratioP1;P1;durP2;ratioP2;P2;SDS_P1;SDS_P2;PMS_P1;PMS_P2;Temp;Humidity;BMP_temperature;BMP_pressure;BME280_temperature;BME280_humidity;BME280_pressure;Samples;Min_cycle;Max_cycle;Signal;HPM_P1;HPM_P2
2022/07/31 00:02:15;;;;;;;10.88;7.43;;;;;;;19.05;71.15;101671.22;5066969;28;20036;-70
2022/07/31 00:04:40;;;;;;;10.73;6.93;;;;;;;19.06;71.21;101679.06;5062487;28;20542;-70
2022/07/31 00:07:05;;;;;;;10.45;7.72;;;;;;;19.10;70.73;101674.53;5053707;28;20430;-71
2022/07/31 00:09:30;;;;;;;8.98;7.57;;;;;;;19.15;71.66;101669.88;5060412;28;20076;-71
2022/07/31 00:11:56;;;;;;;8.95;7.90;;;;;;;19.16;71.59;101667.16;5049748;28;20033;-70
2022/07/31 00:14:21;;;;;;;9.93;7.90;;;;;;;19.14;71.38;101669.00;5069248;28;20032;-71
2022/07/31 00:16:46;;;;;;;8.35;7.47;;;;;;;19.20;71.43;101670.53;5062501;28;20494;-70
2022/07/31 00:19:12;;;;;;;9.40;7.22;;;;;;;19.24;71.61;101656.22;5067892;28;20560;-70
2022/07/31 00:21:37;;;;;;;10.10;7.65;;;;;;;19.25;71.34;101657.06;5056680;28;20029;-70
2022/07/31 00:24:03;;;;;;;9.95;7.60;;;;;;;19.24;72.13;101656.22;5056678;28;20504;-71
2022/07/31 00:26:28;;;;;;;9.05;6.93;;;;;;;19.20;72.01;101659.09;5061045;28;20048;-71
2022/07/31 00:28:53;;;;;;;9.50;7.25;;;;;;;19.21;71.22;101664.28;5067934;28;20041;-70
2022/07/31 00:31:18;;;;;;;10.35;7.55;;;;;;;19.20;71.18;101654.66;5067785;28;20399;-70
2022/07/31 00:33:44;;;;;;;10.68;7.05;;;;;;;19.20;71.39;101652.03;5074235;28;20048;-71
2022/07/31 00:36:09;;;;;;;8.57;7.15;;;;;;;19.24;70.91;101658.00;5062932;28;20036;-70
2022/07/31 00:38:34;;;;;;;10.05;6.55;;;;;;;19.28;71.56;101656.94;5056462;28;20387;-71
2022/07/31 00:41:01;;;;;;;10.68;6.88;;;;;;;19.17;71.31;101665.38;5069058;28;20108;-70
2022/07/31 00:43:27;;;;;;;11.82;6.53;;;;;;;19.24;71.39;101672.09;5057136;28;20028;-71
2022/07/31 00:45:52;;;;;;;12.40;6.68;;;;;;;19.20;70.72;101670.53;5060237;28;20532;-70
2022/07/31 00:48:18;;;;;;;13.23;6.80;;;;;;;19.14;71.06;101665.50;5067740;28;20025;-70
2022/07/31 00:50:43;;;;;;;14.35;7.22;;;;;;;19.11;70.41;101666.50;5061074;28;20094;-71
2022/07/31 00:53:09;;;;;;;10.95;7.25;;;;;;;19.04;70.95;101662.44;5074054;28;20444;-70
2022/07/31 00:55:34;;;;;;;8.38;6.28;;;;;;;19.07;71.91;101658.81;5055990;28;20028;-70
2022/07/31 00:57:59;;;;;;;12.25;7.50;;;;;;;19.09;71.22;101656.94;5061380;28;20020;-70
2022/07/31 01:00:25;;;;;;;12.32;7.60;;;;;;;19.02;70.68;101650.22;5059470;28;20033;-70
2022/07/31 01:02:50;;;;;;;9.13;7.22;;;;;;;19.00;71.48;101650.31;5073612;28;20075;-71
2022/07/31 01:05:17;;;;;;;7.75;7.05;;;;;;;18.93;71.84;101648.84;5059294;28;20029;-70
2022/07/31 01:07:47;;;;;;;11.15;7.68;;;;;;;18.90;71.90;101657.78;5060506;28;20027;-71
2022/07/31 01:10:20;;;;;;;14.68;7.47;;;;;;;18.79;72.28;101654.75;5051065;28;20104;-71
2022/07/31 01:12:58;;;;;;;10.73;7.75;;;;;;;18.75;72.09;101660.25;5072324;28;20025;-71
2022/07/31 01:15:25;;;;;;;11.98;8.02;;;;;;;18.68;73.06;101657.00;5065528;28;20025;-71
2022/07/31 01:17:51;;;;;;;9.80;7.10;;;;;;;18.66;73.26;101662.34;5059850;28;20032;-71
2022/07/31 01:20:17;;;;;;;12.93;8.13;;;;;;;18.64;72.58;101661.56;5063316;28;20085;-70
2022/07/31 01:23:18;;;;;;;8.50;7.60;;;;;;;18.66;72.84;101656.19;5070734;28;20036;-71
2022/07/31 01:26:01;;;;;;;13.35;7.82;;;;;;;18.63;73.68;101658.97;5041412;28;20450;-71
2022/07/31 01:29:04;;;;;;;8.10;7.30;;;;;;;18.61;73.04;101655.56;5069588;28;20543;-70
2022/07/31 01:31:34;;;;;;;10.13;7.75;;;;;;;18.50;73.71;101658.66;5054822;28;20047;-71
2022/07/31 01:34:14;;;;;;;11.50;8.05;;;;;;;18.48;73.16;101650.81;5072655;28;20052;-70
2022/07/31 01:36:45;;;;;;;12.25;8.57;;;;;;;18.40;73.19;101652.91;5058285;28;20021;-71
2022/07/31 01:39:11;;;;;;;9.20;7.63;;;;;;;18.35;73.81;101644.34;5062510;28;20037;-71
2022/07/31 01:41:41;;;;;;;12.00;8.68;;;;;;;18.30;73.42;101650.75;5050577;28;20465;-71
2022/07/31 01:44:10;;;;;;;12.32;8.60;;;;;;;18.30;73.72;101651.59;5042438;28;20435;-71
2022/07/31 01:46:37;;;;;;;12.38;8.35;;;;;;;18.25;74.01;101650.94;5061725;28;20028;-71
2022/07/31 01:49:04;;;;;;;10.85;8.82;;;;;;;18.21;73.74;101644.06;5058965;28;20036;-70
2022/07/31 01:51:32;;;;;;;10.40;8.63;;;;;;;18.19;73.74;101656.50;5050352;28;20029;-70
2022/07/31 01:54:00;;;;;;;14.48;9.30;;;;;;;18.17;73.90;101650.41;5064793;28;20029;-71
2022/07/31 01:56:25;;;;;;;15.05;9.02;;;;;;;18.16;73.86;101652.19;5060483;28;20029;-71
2022/07/31 01:58:52;;;;;;;12.63;9.15;;;;;;;18.12;73.90;101653.25;5055568;28;20486;-71
2022/07/31 02:01:18;;;;;;;14.05;8.82;;;;;;;18.14;73.87;101648.75;5067935;28;20086;-71
2022/07/31 02:03:45;;;;;;;11.13;8.38;;;;;;;18.14;73.76;101646.09;5061869;28;20044;-71
2022/07/31 02:06:13;;;;;;;17.88;9.52;;;;;;;18.08;73.96;101651.63;5054379;28;20064;-70
2022/07/31 02:08:40;;;;;;;14.52;8.95;;;;;;;18.07;74.04;101646.44;5062306;28;20436;-70
2022/07/31 02:11:06;;;;;;;15.55;9.20;;;;;;;18.05;74.09;101640.34;5059240;28;20032;-71
2022/07/31 02:13:32;;;;;;;13.05;9.05;;;;;;;17.96;73.92;101642.47;5072621;28;20044;-70
2022/07/31 02:15:59;;;;;;;12.00;8.85;;;;;;;17.96;74.72;101646.91;5055142;28;20028;-71
2022/07/31 02:18:26;;;;;;;12.30;9.68;;;;;;;18.00;74.53;101645.84;5072409;28;20100;-70
2022/07/31 02:20:52;;;;;;;13.15;8.98;;;;;;;17.96;74.83;101637.19;5064643;28;20024;-70
2022/07/31 02:23:17;;;;;;;12.55;9.10;;;;;;;17.99;75.46;101637.06;5069656;28;20024;-70
2022/07/31 02:25:44;;;;;;;17.40;9.40;;;;;;;17.94;75.19;101635.53;5056417;28;20544;-71
2022/07/31 02:28:14;;;;;;;13.07;9.07;;;;;;;17.96;75.60;101644.25;5061936;28;20032;-71
2022/07/31 02:30:42;;;;;;;11.30;9.52;;;;;;;17.92;75.76;101635.63;5048165;28;20502;-71
2022/07/31 02:33:20;;;;;;;14.82;9.60;;;;;;;17.83;75.15;101645.69;5044717;28;20505;-71
2022/07/31 02:35:48;;;;;;;10.70;9.57;;;;;;;17.82;75.97;101654.50;5071571;28;20029;-70
2022/07/31 02:38:15;;;;;;;13.65;9.77;;;;;;;17.69;76.95;101652.34;5071208;28;20028;-70
2022/07/31 02:40:40;;;;;;;11.73;9.57;;;;;;;17.67;76.95;101645.41;5065753;28;20029;-71
2022/07/31 02:43:06;;;;;;;12.48;9.38;;;;;;;17.63;77.29;101639.41;5057950;28;20036;-70
2022/07/31 02:45:32;;;;;;;13.15;9.23;;;;;;;17.63;76.67;101647.31;5072337;28;20073;-70
2022/07/31 02:47:58;;;;;;;13.32;9.60;;;;;;;17.69;77.51;101648.81;5066797;28;20393;-71
2022/07/31 02:50:24;;;;;;;11.75;9.07;;;;;;;17.67;77.76;101640.13;5055007;28;20028;-70
2022/07/31 02:52:49;;;;;;;13.63;9.35;;;;;;;17.66;77.80;101643.72;5065136;28;20021;-71
2022/07/31 02:55:16;;;;;;;15.55;8.98;;;;;;;17.63;77.99;101639.41;5068387;28;20495;-71
2022/07/31 02:57:42;;;;;;;10.57;8.60;;;;;;;17.64;78.57;101641.13;5060747;28;20526;-70
2022/07/31 03:00:21;;;;;;;10.98;9.05;;;;;;;17.63;77.89;101638.56;5056669;28;21822;-70
2022/07/31 03:02:46;;;;;;;11.00;9.05;;;;;;;17.58;78.69;101633.44;5048789;28;20029;-71
2022/07/31 03:05:12;;;;;;;10.95;8.93;;;;;;;17.60;78.20;101629.00;5053150;28;20027;-71
2022/07/31 03:07:40;;;;;;;11.30;8.43;;;;;;;17.58;78.49;101635.22;5065609;28;20025;-72
2022/07/31 03:10:06;;;;;;;12.82;9.25;;;;;;;17.60;79.12;101628.13;5052154;28;20072;-71
2022/07/31 03:12:31;;;;;;;14.88;9.15;;;;;;;17.60;79.20;101625.50;5071074;28;20371;-70
2022/07/31 03:14:58;;;;;;;12.35;9.38;;;;;;;17.61;79.25;101624.56;5060307;28;20554;-71
2022/07/31 03:17:23;;;;;;;15.48;9.63;;;;;;;17.60;79.04;101615.81;5070729;28;20468;-71
2022/07/31 03:19:49;;;;;;;13.45;10.55;;;;;;;17.63;78.61;101625.38;5052491;28;20037;-70
2022/07/31 03:22:15;;;;;;;14.15;10.77;;;;;;;17.59;78.34;101616.69;5048345;28;20492;-71
2022/07/31 03:24:40;;;;;;;14.50;11.13;;;;;;;17.61;78.77;101616.66;5058606;28;20035;-70
2022/07/31 03:27:06;;;;;;;15.55;10.30;;;;;;;17.61;78.50;101619.28;5066228;28;20070;-70
2022/07/31 03:29:38;;;;;;;14.25;11.68;;;;;;;17.57;78.30;101623.84;5065016;28;20513;-70
2022/07/31 03:32:05;;;;;;;15.65;11.90;;;;;;;17.57;78.74;101621.19;5070929;28;20055;-71
2022/07/31 03:34:30;;;;;;;21.17;11.55;;;;;;;17.52;78.85;101620.50;5067711;28;20031;-70
2022/07/31 03:36:55;;;;;;;15.45;12.20;;;;;;;17.52;78.74;101618.72;5048990;28;20033;-71
2022/07/31 03:39:21;;;;;;;16.17;12.38;;;;;;;17.52;78.90;101608.19;5068654;28;20472;-71
2022/07/31 03:41:47;;;;;;;14.13;11.95;;;;;;;17.51;78.86;101619.66;5071470;28;20452;-71
2022/07/31 03:44:12;;;;;;;14.90;11.80;;;;;;;17.48;79.09;101608.38;5055427;28;20037;-71
2022/07/31 03:46:38;;;;;;;15.52;11.95;;;;;;;17.49;79.09;101615.34;5063299;28;20039;-70
2022/07/31 03:49:04;;;;;;;15.18;11.45;;;;;;;17.47;79.55;101609.31;5051257;28;20480;-71
2022/07/31 03:51:30;;;;;;;17.05;11.88;;;;;;;17.53;80.13;101615.19;5064558;28;20056;-71
2022/07/31 03:53:55;;;;;;;14.43;11.77;;;;;;;17.58;79.55;101616.78;5074141;28;20029;-70
2022/07/31 03:56:22;;;;;;;17.23;12.52;;;;;;;17.58;79.26;101616.78;5073535;28;20102;-71
2022/07/31 03:58:48;;;;;;;14.48;12.82;;;;;;;17.58;78.74;101609.72;5055103;28;20401;-71
2022/07/31 04:01:15;;;;;;;15.40;13.45;;;;;;;17.55;78.79;101613.34;5058701;28;20025;-71
2022/07/31 04:03:41;;;;;;;15.82;12.82;;;;;;;17.58;79.06;101622.06;5073698;28;20013;-71
2022/07/31 04:06:06;;;;;;;14.93;12.85;;;;;;;17.58;79.00;101617.63;5074870;28;20538;-71
2022/07/31 04:08:32;;;;;;;15.80;13.15;;;;;;;17.57;79.18;101622.97;5059542;28;20041;-71
2022/07/31 04:10:58;;;;;;;15.48;13.55;;;;;;;17.55;79.24;101621.25;5059695;28;20082;-71
2022/07/31 04:13:23;;;;;;;17.33;13.55;;;;;;;17.49;79.20;101612.72;5064419;28;20033;-71
2022/07/31 04:15:48;;;;;;;17.08;13.75;;;;;;;17.51;79.47;101618.81;5067608;28;20021;-70
2022/07/31 04:18:13;;;;;;;16.63;13.48;;;;;;;17.51;79.51;101614.38;5074991;28;20472;-71
2022/07/31 04:20:39;;;;;;;21.65;13.38;;;;;;;17.50;79.77;101628.50;5074282;28;20032;-71
2022/07/31 04:23:04;;;;;;;15.82;13.70;;;;;;;17.44;79.68;101612.91;5074031;28;20020;-70
2022/07/31 04:25:29;;;;;;;15.40;13.77;;;;;;;17.51;79.73;101631.97;5057988;28;20465;-70
2022/07/31 04:27:55;;;;;;;14.27;11.52;;;;;;;17.51;80.08;101635.47;5059256;28;20029;-70
2022/07/31 04:30:20;;;;;;;16.15;13.13;;;;;;;17.58;79.88;101635.22;5067310;28;20020;-71
2022/07/31 04:32:45;;;;;;;13.65;11.50;;;;;;;17.62;80.29;101632.41;5052275;28;20021;-70
2022/07/31 04:35:12;;;;;;;15.48;11.27;;;;;;;17.69;79.73;101622.47;5056166;28;20029;-70
2022/07/31 04:37:37;;;;;;;13.85;10.90;;;;;;;17.72;80.71;101627.63;5071973;28;20020;-70
2022/07/31 04:40:03;;;;;;;13.43;10.90;;;;;;;17.75;80.03;101630.97;5074511;28;20020;-70
2022/07/31 04:42:28;;;;;;;13.23;10.18;;;;;;;17.75;80.27;101633.63;5073898;28;20038;-71
2022/07/31 04:44:54;;;;;;;12.23;9.93;;;;;;;17.78;80.41;101633.53;5073430;28;20350;-70
2022/07/31 04:47:19;;;;;;;14.15;9.25;;;;;;;17.83;80.46;101636.00;5059093;28;20074;-70
2022/07/31 04:49:44;;;;;;;12.57;9.45;;;;;;;17.83;80.43;101628.06;5054505;28;20057;-71
2022/07/31 04:52:10;;;;;;;10.63;8.50;;;;;;;17.89;80.29;101621.69;5073801;28;20097;-70
2022/07/31 04:54:37;;;;;;;10.82;8.55;;;;;;;17.94;80.90;101619.72;5074097;28;20031;-71
2022/07/31 04:57:02;;;;;;;12.75;8.10;;;;;;;17.97;80.58;101625.72;5061895;28;20028;-70
2022/07/31 04:59:27;;;;;;;12.52;8.82;;;;;;;18.01;80.34;101629.06;5074063;28;20032;-70
2022/07/31 05:01:53;;;;;;;12.43;8.25;;;;;;;18.04;81.13;101628.94;5069113;28;20040;-70
2022/07/31 05:04:18;;;;;;;10.93;8.35;;;;;;;18.01;80.72;101624.66;5061176;28;20107;-70
2022/07/31 05:06:49;;;;;;;10.05;7.72;;;;;;;17.98;80.76;101619.53;5057951;28;20078;-71
2022/07/31 05:09:21;;;;;;;10.45;7.82;;;;;;;17.99;80.71;101620.38;5064397;28;20041;-70
2022/07/31 05:11:47;;;;;;;11.15;7.22;;;;;;;18.01;80.58;101624.66;5068416;28;20032;-70
2022/07/31 05:14:15;;;;;;;10.10;7.22;;;;;;;18.00;81.05;101622.94;5073630;28;20051;-70
2022/07/31 05:16:40;;;;;;;10.20;6.70;;;;;;;18.04;80.59;101613.13;5069224;28;20112;-70
2022/07/31 05:19:06;;;;;;;11.50;6.80;;;;;;;18.02;82.11;101601.78;5072628;28;20091;-71
2022/07/31 05:21:32;;;;;;;9.02;6.70;;;;;;;18.04;81.81;101599.06;5060667;28;20408;-70
2022/07/31 05:23:59;;;;;;;8.88;6.47;;;;;;;18.07;81.47;101607.72;5058306;28;20468;-71
2022/07/31 05:26:25;;;;;;;6.80;6.00;;;;;;;18.09;82.07;101611.16;5062951;28;20052;-70
2022/07/31 05:28:52;;;;;;;6.68;5.95;;;;;;;18.13;81.41;101617.16;5069185;28;20071;-70
2022/07/31 05:31:18;;;;;;;8.45;6.38;;;;;;;18.10;82.64;101604.94;5072933;28;20116;-70
2022/07/31 05:33:45;;;;;;;11.05;6.20;;;;;;;18.15;82.00;101608.25;5072490;28;20425;-70
2022/07/31 05:36:11;;;;;;;8.10;5.70;;;;;;;18.20;82.49;101605.41;5062511;28;20020;-71
2022/07/31 05:38:36;;;;;;;8.35;5.90;;;;;;;18.22;82.73;101601.78;5058829;28;20384;-70
2022/07/31 05:41:01;;;;;;;7.90;5.90;;;;;;;18.30;81.38;101596.16;5071022;28;20036;-70
2022/07/31 05:43:27;;;;;;;7.38;5.75;;;;;;;18.30;83.03;101603.22;5072979;28;20021;-70
2022/07/31 05:45:53;;;;;;;9.75;6.00;;;;;;;18.30;82.46;101603.22;5071874;28;20039;-70
2022/07/31 05:48:18;;;;;;;8.48;5.43;;;;;;;18.27;83.61;101603.38;5060111;28;20073;-70
2022/07/31 05:50:46;;;;;;;6.30;5.65;;;;;;;18.32;83.36;101612.81;5062950;28;20036;-70
2022/07/31 05:53:14;;;;;;;7.60;5.53;;;;;;;18.38;83.51;101607.25;5072095;28;20059;-70
2022/07/31 05:55:40;;;;;;;9.82;5.82;;;;;;;18.38;84.09;101601.97;5056338;28;20032;-70
2022/07/31 05:58:05;;;;;;;9.25;5.97;;;;;;;18.43;83.72;101607.91;5067287;28;20040;-71
2022/07/31 06:00:31;;;;;;;6.95;5.80;;;;;;;18.47;83.13;101613.91;5066486;28;20105;-70
2022/07/31 06:02:58;;;;;;;8.32;5.90;;;;;;;18.47;83.06;101614.78;5065191;28;20046;-70
2022/07/31 06:05:24;;;;;;;7.72;5.28;;;;;;;18.51;83.68;101601.41;5072414;28;20471;-70
2022/07/31 06:07:50;;;;;;;7.18;5.82;;;;;;;18.55;83.52;101603.03;5058292;28;20024;-70
2022/07/31 06:10:15;;;;;;;6.55;5.55;;;;;;;18.57;83.39;101609.06;5048237;28;20026;-71
2022/07/31 06:12:41;;;;;;;6.53;5.75;;;;;;;18.61;83.19;101602.75;5071783;28;20462;-70
2022/07/31 06:15:07;;;;;;;9.18;5.30;;;;;;;18.67;82.47;101602.44;5071673;28;20035;-71
2022/07/31 06:17:32;;;;;;;7.13;5.85;;;;;;;18.65;82.56;101607.81;5072602;28;20492;-71
2022/07/31 06:19:57;;;;;;;10.02;6.00;;;;;;;18.64;82.01;101606.09;5070630;28;20036;-70
2022/07/31 06:22:22;;;;;;;6.93;5.15;;;;;;;18.66;82.52;101601.59;5051316;28;20078;-71
2022/07/31 06:24:48;;;;;;;6.72;5.13;;;;;;;18.77;82.80;101606.44;5053898;28;20476;-71
2022/07/31 06:27:13;;;;;;;9.20;5.13;;;;;;;18.83;82.38;101606.13;5067591;28;20103;-70
2022/07/31 06:29:39;;;;;;;5.60;4.65;;;;;;;18.87;82.49;101609.53;5071515;28;20384;-70
2022/07/31 06:32:05;;;;;;;6.97;5.20;;;;;;;18.91;81.40;101585.50;5056632;28;20036;-70
2022/07/31 06:34:30;;;;;;;8.45;5.88;;;;;;;19.03;82.07;101588.50;5060222;28;20422;-71
2022/07/31 06:36:55;;;;;;;6.70;5.28;;;;;;;19.04;81.80;101596.38;5071435;28;20024;-71
2022/07/31 06:39:21;;;;;;;7.03;4.93;;;;;;;19.09;82.26;101590.84;5068121;28;20032;-70
2022/07/31 06:41:46;;;;;;;7.80;5.10;;;;;;;19.16;81.75;101594.91;5055796;28;20495;-71
2022/07/31 06:44:18;;;;;;;6.53;4.80;;;;;;;19.22;81.50;101596.41;5067592;28;20031;-71
2022/07/31 06:46:47;;;;;;;6.85;4.95;;;;;;;19.27;81.50;101603.22;5063567;28;20040;-71
2022/07/31 06:49:13;;;;;;;5.57;4.75;;;;;;;19.31;81.56;101588.91;5052748;28;20017;-71
2022/07/31 06:51:39;;;;;;;6.20;4.70;;;;;;;19.37;80.68;101599.19;5067331;28;20031;-71
2022/07/31 06:54:06;;;;;;;6.82;4.80;;;;;;;19.38;81.01;101602.69;5071823;28;20020;-71
2022/07/31 06:56:33;;;;;;;7.38;4.90;;;;;;;19.44;80.61;101602.41;5060098;28;20507;-71
2022/07/31 06:59:00;;;;;;;6.43;4.97;;;;;;;19.53;80.58;101590.53;5064117;28;20531;-71
2022/07/31 07:01:26;;;;;;;7.57;4.70;;;;;;;19.63;79.80;101586.50;5052791;28;20064;-71
2022/07/31 07:03:51;;;;;;;6.20;4.90;;;;;;;19.72;79.89;101594.00;5070881;28;20117;-71
2022/07/31 07:06:17;;;;;;;6.32;5.15;;;;;;;19.75;79.46;101592.97;5071674;28;20169;-71
2022/07/31 07:08:43;;;;;;;8.40;5.28;;;;;;;19.77;79.10;101594.63;5066257;28;20040;-71
2022/07/31 07:11:08;;;;;;;10.57;6.05;;;;;;;19.79;78.74;101595.41;5049349;28;20373;-71
2022/07/31 07:13:33;;;;;;;8.18;6.35;;;;;;;19.83;79.54;101596.97;5059283;28;20037;-71
2022/07/31 07:15:59;;;;;;;10.25;6.55;;;;;;;19.92;79.74;101585.06;5063270;28;20044;-70
2022/07/31 07:18:24;;;;;;;8.85;6.72;;;;;;;20.05;78.53;101593.22;5052363;28;20372;-71
2022/07/31 07:20:50;;;;;;;9.43;6.43;;;;;;;20.22;78.46;101598.50;5043226;28;20027;-71
2022/07/31 07:23:16;;;;;;;11.13;7.25;;;;;;;20.37;77.22;101585.38;5071558;28;20372;-70
2022/07/31 07:25:41;;;;;;;11.32;7.75;;;;;;;20.47;77.04;101592.78;5065280;28;20025;-71
2022/07/31 07:28:08;;;;;;;11.23;7.35;;;;;;;20.57;76.52;101594.03;5059957;28;20043;-71
2022/07/31 07:30:34;;;;;;;9.95;7.78;;;;;;;20.65;75.66;101604.22;5057800;28;20108;-71
2022/07/31 07:32:59;;;;;;;9.00;7.22;;;;;;;20.63;75.29;101586.69;5070663;28;20107;-70
2022/07/31 07:35:25;;;;;;;8.50;7.22;;;;;;;20.79;75.72;101583.13;5065047;28;20119;-70
2022/07/31 07:37:51;;;;;;;14.75;8.18;;;;;;;20.91;75.29;101588.69;5070853;28;20024;-71
2022/07/31 07:40:17;;;;;;;12.68;8.40;;;;;;;21.07;74.25;101592.22;5070617;28;20476;-71
2022/07/31 07:42:43;;;;;;;11.98;8.68;;;;;;;21.20;74.63;101582.63;5064931;28;20035;-71
2022/07/31 07:45:09;;;;;;;14.45;10.10;;;;;;;21.17;74.25;101582.81;5063116;28;20116;-70
2022/07/31 07:47:35;;;;;;;12.50;9.80;;;;;;;21.28;73.40;101580.38;5057997;28;20025;-71
2022/07/31 07:50:01;;;;;;;10.40;8.88;;;;;;;21.39;73.76;101584.28;5056357;28;20044;-70
2022/07/31 07:52:26;;;;;;;10.15;8.57;;;;;;;21.48;73.66;101579.31;5070207;28;20459;-77
2022/07/31 07:54:52;;;;;;;11.68;8.60;;;;;;;21.58;72.50;101576.97;5065179;28;20087;-76
2022/07/31 07:57:19;;;;;;;12.57;9.60;;;;;;;21.52;72.15;101593.25;5056064;28;20017;-76
2022/07/31 07:59:45;;;;;;;13.70;10.18;;;;;;;21.45;72.57;101581.25;5069911;28;20020;-76
2022/07/31 08:02:11;;;;;;;12.63;9.60;;;;;;;21.50;72.36;101576.56;5055943;28;20029;-76
2022/07/31 08:04:36;;;;;;;12.50;9.35;;;;;;;21.54;72.49;101586.03;5049156;28;20036;-74
2022/07/31 08:07:02;;;;;;;11.52;8.93;;;;;;;21.64;72.88;101576.59;5062476;28;20021;-73
2022/07/31 08:09:28;;;;;;;13.07;9.35;;;;;;;21.74;73.11;101583.09;5058171;28;20052;-73
2022/07/31 08:11:53;;;;;;;13.38;9.48;;;;;;;21.83;71.01;101572.88;5053402;28;20029;-73
2022/07/31 08:14:19;;;;;;;12.73;8.95;;;;;;;21.96;71.53;101573.84;5048748;28;20465;-74
2022/07/31 08:16:44;;;;;;;11.13;8.75;;;;;;;22.18;71.53;101576.09;5050031;28;20037;-74
2022/07/31 08:19:09;;;;;;;14.95;8.43;;;;;;;22.35;71.27;101567.97;5064663;28;20395;-74
2022/07/31 08:21:35;;;;;;;10.23;7.72;;;;;;;22.61;70.40;101570.81;5070275;28;20084;-74
2022/07/31 08:24:01;;;;;;;11.15;8.38;;;;;;;22.81;68.45;101565.06;5070606;28;20457;-75
2022/07/31 08:27:22;;;;;;;9.95;7.90;;;;;;;22.85;68.11;101561.25;5070541;28;20031;-74
2022/07/31 08:29:11;;;;;;;15.82;8.85;;;;;;;22.92;67.79;101567.03;5052473;28;20036;-74
2022/07/31 08:31:37;;;;;;;10.13;8.85;;;;;;;22.87;68.19;101558.53;5070731;28;20150;-74
2022/07/31 08:34:02;;;;;;;12.95;8.43;;;;;;;22.92;67.77;101561.72;5068723;28;20687;-74
2022/07/31 08:36:27;;;;;;;10.13;8.25;;;;;;;22.89;68.51;101564.63;5055796;28;20087;-74
2022/07/31 08:38:52;;;;;;;11.68;7.97;;;;;;;22.85;68.19;101568.41;5052097;28;20025;-74
2022/07/31 08:41:18;;;;;;;11.85;7.82;;;;;;;22.72;68.61;101567.47;5056046;28;20024;-74
2022/07/31 08:43:43;;;;;;;9.23;7.80;;;;;;;22.53;68.85;101571.28;5073759;28;20021;-74
2022/07/31 08:46:09;;;;;;;8.93;8.02;;;;;;;22.35;69.10;101572.41;5074088;28;20468;-74
2022/07/31 08:48:39;;;;;;;9.85;8.50;;;;;;;22.20;70.21;101569.75;5058730;28;20456;-74
2022/07/31 08:51:05;;;;;;;9.23;7.95;;;;;;;22.14;70.38;101575.41;5066160;28;20098;-74
2022/07/31 08:53:35;;;;;;;8.05;6.88;;;;;;;22.13;72.11;101571.03;5072018;28;20456;-74
2022/07/31 08:56:02;;;;;;;9.10;7.78;;;;;;;22.05;70.87;101581.28;5064326;28;20035;-74
2022/07/31 08:58:28;;;;;;;9.30;7.70;;;;;;;22.08;71.86;101577.59;5073929;28;20025;-74
2022/07/31 09:00:54;;;;;;;14.73;7.57;;;;;;;22.16;72.71;101573.53;5071718;28;20035;-74
2022/07/31 09:03:19;;;;;;;9.77;7.15;;;;;;;22.30;72.12;101572.72;5073275;28;20464;-73
2022/07/31 09:05:44;;;;;;;11.75;7.53;;;;;;;22.52;71.57;101587.31;5072282;28;20029;-74
2022/07/31 09:08:10;;;;;;;7.97;6.60;;;;;;;22.67;71.21;101571.28;5067221;28;20395;-73
2022/07/31 09:10:35;;;;;;;9.77;6.95;;;;;;;22.87;69.72;101566.50;5068367;28;20041;-75
2022/07/31 09:13:15;;;;;;;7.97;7.18;;;;;;;23.03;69.46;101561.94;5050852;28;20048;-75
2022/07/31 09:15:41;;;;;;;10.10;7.60;;;;;;;23.08;68.84;101554.50;5049889;28;20944;-75
2022/07/31 09:18:17;;;;;;;9.85;6.97;;;;;;;23.13;68.54;101563.06;5057992;28;20021;-73
2022/07/31 09:20:59;;;;;;;10.05;7.20;;;;;;;23.21;67.91;101551.06;5072420;28;20024;-73
2022/07/31 09:23:26;;;;;;;8.20;6.45;;;;;;;23.43;67.62;101553.16;5069633;28;20464;-74
2022/07/31 09:26:02;;;;;;;12.55;6.93;;;;;;;23.73;66.52;101555.59;5056907;28;20024;-74
2022/07/31 09:28:40;;;;;;;11.45;7.18;;;;;;;23.91;67.08;101562.34;5062580;28;20029;-74
2022/07/31 09:31:08;;;;;;;8.95;7.60;;;;;;;23.82;65.68;101562.97;5045548;28;20039;-74
2022/07/31 09:33:37;;;;;;;8.50;6.97;;;;;;;23.74;66.62;101560.84;5073239;28;20174;-74
2022/07/31 09:36:03;;;;;;;12.38;6.82;;;;;;;23.75;66.22;101564.34;5057723;28;20555;-73
2022/07/31 09:38:47;;;;;;;7.38;6.68;;;;;;;23.98;66.01;101566.28;5072168;28;20028;-74
2022/07/31 09:41:14;;;;;;;;;;;;;;;24.28;65.05;101567.78;5053501;28;20029;-74
2022/07/31 09:43:40;;;;;;;9.55;6.07;;;;;;;24.43;64.06;101552.59;5043528;28;19913;-73
2022/07/31 09:46:07;;;;;;;7.85;6.18;;;;;;;24.73;63.50;101552.22;5043190;28;20055;-74
2022/07/31 09:48:33;;;;;;;5.85;5.25;;;;;;;24.92;62.58;101555.25;5041907;28;20078;-74
2022/07/31 09:51:05;;;;;;;9.48;5.70;;;;;;;25.04;62.91;101549.97;5045742;28;20060;-74
2022/07/31 09:53:44;;;;;;;7.75;6.35;;;;;;;24.98;62.82;101551.25;5054111;28;20028;-74
2022/07/31 09:56:11;;;;;;;6.72;5.55;;;;;;;25.03;63.24;101550.94;5050855;28;20025;-74
2022/07/31 09:58:40;;;;;;;6.70;5.30;;;;;;;24.99;62.42;101542.31;5067035;28;20020;-74
2022/07/31 10:01:08;;;;;;;6.88;5.72;;;;;;;25.25;63.28;101545.75;5055292;28;20119;-74
2022/07/31 10:03:36;;;;;;;7.50;5.47;;;;;;;25.43;61.67;101547.03;5050693;28;20086;-74
2022/07/31 10:06:03;;;;;;;6.40;5.20;;;;;;;25.28;60.39;101542.00;5060697;28;20486;-74
2022/07/31 10:08:32;;;;;;;7.88;4.95;;;;;;;25.28;59.62;101548.22;5054887;28;20082;-74
2022/07/31 10:10:58;;;;;;;7.85;6.03;;;;;;;25.32;59.88;101555.00;5055659;28;20044;-75
2022/07/31 10:13:24;;;;;;;16.23;13.57;;;;;;;25.28;60.56;101561.56;5053935;28;20041;-75
2022/07/31 10:15:53;;;;;;;8.32;5.57;;;;;;;25.24;59.95;101554.72;5067845;28;20029;-74
2022/07/31 10:18:18;;;;;;;7.18;4.57;;;;;;;25.12;60.69;101552.97;5064411;28;20165;-74
2022/07/31 10:20:51;;;;;;;6.45;4.90;;;;;;;25.02;62.71;101544.75;5070613;28;20482;-74
2022/07/31 10:23:24;;;;;;;5.43;4.88;;;;;;;25.02;59.91;101543.91;5043207;28;20064;-74
2022/07/31 10:25:57;;;;;;;8.57;4.70;;;;;;;24.95;60.50;101544.34;5049120;28;20035;-74
2022/07/31 10:28:24;;;;;;;6.65;4.82;;;;;;;24.89;62.45;101544.81;5043498;28;20155;-74
2022/07/31 10:30:50;;;;;;;7.65;4.72;;;;;;;25.01;61.45;101537.69;5047890;28;20032;-74
2022/07/31 10:33:17;;;;;;;6.43;4.57;;;;;;;25.25;60.52;101540.44;5048132;28;20057;-74
2022/07/31 10:35:57;;;;;;;7.10;4.40;;;;;;;25.43;59.85;101533.69;5047071;28;20029;-74
2022/07/31 10:38:29;;;;;;;6.25;4.35;;;;;;;25.87;58.93;101537.50;5040716;28;20029;-74
2022/07/31 10:41:06;;;;;;;5.03;4.15;;;;;;;26.26;58.01;101523.81;5047721;28;20111;-74
2022/07/31 10:43:44;;;;;;;6.15;4.18;;;;;;;26.39;56.57;101528.09;5050645;28;20029;-75
2022/07/31 10:46:10;;;;;;;7.35;4.03;;;;;;;26.59;55.44;101528.34;5039309;28;20056;-74
2022/07/31 10:48:35;;;;;;;9.05;4.40;;;;;;;26.42;57.78;101523.44;5050810;28;20136;-74
2022/07/31 10:51:03;;;;;;;6.15;4.15;;;;;;;26.04;56.99;101528.19;5063643;28;20438;-74
2022/07/31 10:53:28;;;;;;;9.25;4.70;;;;;;;25.54;58.16;101521.34;5065375;28;20016;-74
2022/07/31 10:56:01;;;;;;;8.32;4.10;;;;;;;25.19;59.98;101530.22;5062968;28;20031;-74
2022/07/31 10:58:28;;;;;;;6.68;4.18;;;;;;;24.99;61.13;101521.81;5061648;28;20379;-74
2022/07/31 11:01:07;;;;;;;8.55;4.30;;;;;;;25.07;60.55;101520.41;5063269;28;20025;-74
2022/07/31 11:03:45;;;;;;;9.00;4.43;;;;;;;25.14;59.83;101516.34;5053684;28;20128;-73
2022/07/31 11:06:10;;;;;;;5.55;4.43;;;;;;;25.31;59.93;101513.28;5062177;28;20105;-72
2022/07/31 11:08:43;;;;;;;5.65;4.40;;;;;;;25.57;59.63;101513.09;5071179;28;20372;-74
2022/07/31 11:11:09;;;;;;;6.38;4.20;;;;;;;25.85;58.05;101512.72;5064373;28;20075;-74
2022/07/31 11:13:54;;;;;;;7.47;4.25;;;;;;;26.54;56.82;101501.97;5071404;28;20031;-74
2022/07/31 11:16:19;;;;;;;4.38;3.97;;;;;;;27.12;57.27;101500.84;5060856;28;20043;-74
2022/07/31 11:19:00;;;;;;;5.18;3.67;;;;;;;27.70;55.35;101504.84;5053939;28;20035;-74
2022/07/31 11:21:44;;;;;;;7.65;4.10;;;;;;;28.19;54.00;101497.13;5067080;28;20039;-74